Time;durP1;ratioP1;P1;durP2;ratioP2;P2;SDS_P1;SDS_P2;PMS_P1;PMS_P2;Temp;Humidity;BMP_temperature;BMP_pressure;BME280_temperature;BME280_humidity;BME280_pressure;Samples;Min_cycle;Max_cycle;Signal;HPM_P1;HPM_P2
2022/09/04 00:02:11;;;;;;;4.57;2.80;;;21.30;99.90;;;;;;5034217;28;20168;-87
2022/09/04 00:04:53;;;;;;;3.47;3.17;;;21.30;99.90;;;;;;5033894;28;20306;-86
2022/09/04 00:07:34;;;;;;;10.23;3.25;;;21.20;99.90;;;;;;5033506;28;20225;-87
2022/09/04 00:10:20;;;;;;;3.60;3.13;;;21.20;99.90;;;;;;5033762;28;20164;-87
2022/09/04 00:13:04;;;;;;;3.38;2.70;;;21.20;99.90;;;;;;5033115;28;20207;-87
2022/09/04 00:15:48;;;;;;;5.32;3.78;;;21.10;99.90;;;;;;5033782;28;20172;-87
2022/09/04 00:18:39;;;;;;;7.97;3.35;;;21.10;99.90;;;;;;5033945;28;20167;-87
2022/09/04 00:21:31;;;;;;;4.03;3.50;;;21.00;99.90;;;;;;5033138;28;20184;-87
2022/09/04 00:24:29;;;;;;;6.47;3.80;;;21.10;99.90;;;;;;5033376;28;20264;-87
2022/09/04 00:27:02;;;;;;;4.28;3.42;;;21.20;99.90;;;;;;5030736;28;20186;-87
2022/09/04 00:29:47;;;;;;;12.73;3.20;;;21.20;99.90;;;;;;5033602;28;20171;-87
2022/09/04 00:32:13;;;;;;;3.72;3.40;;;21.10;99.90;;;;;;5033459;28;20245;-87
2022/09/04 00:34:44;;;;;;;4.43;3.42;;;21.10;99.90;;;;;;5034681;28;20180;-87
2022/09/04 00:37:16;;;;;;;6.38;3.38;;;21.10;99.90;;;;;;5033631;28;20179;-87
2022/09/04 00:39:54;;;;;;;7.40;3.55;;;20.90;99.90;;;;;;5033966;28;20180;-87
2022/09/04 00:42:38;;;;;;;6.07;3.33;;;20.90;99.90;;;;;;5033326;28;20203;-88
2022/09/04 00:45:41;;;;;;;9.55;3.88;;;20.90;99.90;;;;;;5033112;28;20203;-87
2022/09/04 00:48:46;;;;;;;4.25;3.88;;;20.90;99.90;;;;;;5033070;28;20266;-86
2022/09/04 00:51:34;;;;;;;5.13;3.22;;;21.00;99.90;;;;;;5033047;28;20265;-86
2022/09/04 00:54:00;;;;;;;5.60;3.40;;;21.00;99.90;;;;;;5033126;28;20274;-87
2022/09/04 00:56:55;;;;;;;9.32;4.00;;;21.00;99.90;;;;;;5033258;28;20257;-87
2022/09/04 00:59:44;;;;;;;3.65;3.35;;;21.00;99.90;;;;;;5032619;28;20172;-88
2022/09/04 01:02:35;;;;;;;10.55;3.47;;;20.90;99.90;;;;;;5032325;28;20622;-88
2022/09/04 01:05:16;;;;;;;3.88;3.55;;;21.00;99.90;;;;;;5033445;28;20298;-87
2022/09/04 01:08:06;;;;;;;4.35;3.42;;;21.00;99.90;;;;;;5033298;28;20419;-87
2022/09/04 01:10:47;;;;;;;3.95;3.10;;;20.80;99.90;;;;;;5032902;28;20179;-86
2022/09/04 01:13:22;;;;;;;3.33;3.03;;;20.80;99.90;;;;;;5033149;28;20602;-86
2022/09/04 01:16:00;;;;;;;4.38;3.47;;;20.60;99.90;;;;;;5032843;28;20165;-86
2022/09/04 01:18:52;;;;;;;5.13;3.33;;;20.60;99.90;;;;;;5032730;28;20168;-87
2022/09/04 01:21:48;;;;;;;7.07;3.45;;;20.70;99.90;;;;;;5032404;28;20175;-86
2022/09/04 01:24:35;;;;;;;5.80;3.08;;;20.90;99.90;;;;;;5032919;28;20211;-87
2022/09/04 01:27:08;;;;;;;3.88;3.50;;;20.80;99.90;;;;;;5051428;28;20171;-86
2022/09/04 01:29:53;;;;;;;8.20;3.38;;;20.70;99.90;;;;;;5054570;28;20632;-87
2022/09/04 01:32:58;;;;;;;3.53;3.20;;;20.60;99.90;;;;;;5051069;28;20195;-87
2022/09/04 01:36:02;;;;;;;4.10;3.33;;;20.60;99.90;;;;;;5010173;28;20939;-87
2022/09/04 01:38:52;;;;;;;3.40;3.08;;;20.60;99.90;;;;;;5041527;28;20168;-87
2022/09/04 01:41:55;;;;;;;4.20;3.33;;;20.50;99.90;;;;;;5025830;28;20176;-87
2022/09/04 01:44:22;;;;;;;8.75;3.70;;;20.50;99.90;;;;;;5004586;28;20288;-87
2022/09/04 01:47:13;;;;;;;4.07;3.00;;;20.50;99.90;;;;;;5035003;28;20650;-87
2022/09/04 01:49:46;;;;;;;9.88;3.30;;;20.50;99.90;;;;;;5036345;28;20271;-87
2022/09/04 01:52:40;;;;;;;5.72;3.92;;;20.40;99.90;;;;;;5036852;28;20180;-88
2022/09/04 01:55:23;;;;;;;4.47;3.40;;;20.40;99.90;;;;;;5036984;28;20163;-88
2022/09/04 01:57:58;;;;;;;6.13;3.10;;;20.40;99.90;;;;;;5038991;28;20225;-88
2022/09/04 02:00:28;;;;;;;8.23;3.95;;;20.50;99.90;;;;;;5037932;28;20195;-88
2022/09/04 02:02:58;;;;;;;2.95;2.75;;;20.50;99.90;;;;;;5036364;28;20265;-87
2022/09/04 02:05:27;;;;;;;3.75;3.45;;;20.50;99.90;;;;;;5041587;28;20549;-88
2022/09/04 02:08:23;;;;;;;3.42;3.03;;;20.50;99.90;;;;;;5039547;28;20631;-88
2022/09/04 02:11:15;;;;;;;4.20;2.53;;;20.50;99.90;;;;;;5035929;28;20164;-88
2022/09/04 02:14:09;;;;;;;2.72;2.53;;;20.40;99.90;;;;;;5036678;28;20257;-86
2022/09/04 02:17:20;;;;;;;5.10;2.90;;;20.40;99.90;;;;;;5039417;28;20705;-87
2022/09/04 02:20:01;;;;;;;3.08;2.80;;;20.30;99.90;;;;;;5034827;28;20187;-86
2022/09/04 02:22:40;;;;;;;3.00;2.67;;;20.40;99.90;;;;;;5038445;28;20227;-87
2022/09/04 02:25:06;;;;;;;4.00;2.97;;;20.50;99.90;;;;;;5038323;28;20210;-87
2022/09/04 02:27:50;;;;;;;8.43;2.70;;;20.40;99.90;;;;;;5042836;28;20172;-87
2022/09/04 02:30:18;;;;;;;3.25;2.95;;;20.40;99.90;;;;;;5045430;28;20159;-87
2022/09/04 02:33:35;;;;;;;3.08;2.88;;;20.30;99.90;;;;;;5040548;28;20649;-87
2022/09/04 02:36:25;;;;;;;3.17;2.60;;;20.30;99.90;;;;;;4998681;28;20218;-87
2022/09/04 02:39:01;;;;;;;4.70;2.83;;;20.30;99.90;;;;;;5035924;28;20187;-87
2022/09/04 02:42:13;;;;;;;12.55;3.25;;;20.30;99.90;;;;;;5038110;28;20167;-87
2022/09/04 02:45:05;;;;;;;4.72;3.17;;;20.50;99.90;;;;;;5009630;28;20216;-88
2022/09/04 02:47:56;;;;;;;5.65;3.03;;;20.60;99.90;;;;;;5036176;28;20172;-88
2022/09/04 02:50:52;;;;;;;4.82;3.28;;;20.50;99.90;;;;;;5037137;28;20164;-88
2022/09/04 02:53:54;;;;;;;4.90;2.47;;;20.50;99.90;;;;;;5037116;28;20188;-88
2022/09/04 02:56:23;;;;;;;3.60;3.30;;;20.40;99.90;;;;;;5009185;28;20516;-88
2022/09/04 02:58:56;;;;;;;3.50;3.28;;;20.20;99.90;;;;;;5036294;28;20211;-87
2022/09/04 03:01:56;;;;;;;6.07;3.50;;;20.10;99.90;;;;;;5036025;28;20238;-87
2022/09/04 03:04:48;;;;;;;4.50;3.42;;;20.20;99.90;;;;;;5036316;28;20200;-87
2022/09/04 03:07:38;;;;;;;3.58;3.28;;;20.20;99.90;;;;;;5036163;28;20178;-88
2022/09/04 03:10:19;;;;;;;3.80;3.50;;;20.20;99.90;;;;;;5036059;28;20172;-87
2022/09/04 03:12:55;;;;;;;10.02;2.92;;;20.20;99.90;;;;;;5035478;28;20183;-87
2022/09/04 03:15:49;;;;;;;6.13;4.03;;;20.30;99.90;;;;;;5035262;28;20187;-87
2022/09/04 03:18:36;;;;;;;6.80;3.88;;;20.40;99.90;;;;;;5036343;28;20172;-87
2022/09/04 03:21:19;;;;;;;5.72;4.55;;;20.40;99.90;;;;;;5036158;28;20241;-87
2022/09/04 03:23:53;;;;;;;4.93;4.53;;;20.10;99.90;;;;;;5035654;28;20298;-87
2022/09/04 03:26:43;;;;;;;4.00;3.70;;;20.10;99.90;;;;;;5035160;28;20172;-87
2022/09/04 03:29:15;;;;;;;6.45;3.95;;;20.10;99.90;;;;;;5019382;28;20176;-87
2022/09/04 03:31:43;;;;;;;6.32;3.75;;;20.00;99.90;;;;;;5036111;28;20266;-87
2022/09/04 03:34:21;;;;;;;6.47;4.28;;;20.00;99.90;;;;;;5035794;28;20558;-88
2022/09/04 03:37:11;;;;;;;7.63;4.22;;;20.00;99.90;;;;;;5035796;28;20233;-87
2022/09/04 03:40:11;;;;;;;5.07;4.10;;;20.00;99.90;;;;;;5035648;28;20171;-87
2022/09/04 03:42:37;;;;;;;5.88;4.55;;;19.90;99.90;;;;;;5035613;28;20671;-86
2022/09/04 03:45:30;;;;;;;7.60;4.30;;;19.80;99.90;;;;;;5036218;28;20250;-87
2022/09/04 03:48:18;;;;;;;7.82;4.68;;;19.80;99.90;;;;;;5034797;28;20202;-87
2022/09/04 03:51:24;;;;;;;6.18;5.15;;;19.80;99.90;;;;;;5034774;28;20179;-87
2022/09/04 03:54:08;;;;;;;5.55;4.47;;;19.70;99.90;;;;;;5005514;28;20196;-87
2022/09/04 03:57:05;;;;;;;6.72;5.10;;;19.80;99.90;;;;;;5053304;28;20151;-86
2022/09/04 03:59:49;;;;;;;5.20;4.55;;;19.90;99.90;;;;;;5056336;28;20614;-87
2022/09/04 04:02:36;;;;;;;6.57;5.20;;;20.00;99.90;;;;;;5046569;28;20205;-87
2022/09/04 04:05:37;;;;;;;5.68;5.13;;;19.90;99.90;;;;;;5034373;28;20230;-87
2022/09/04 04:08:12;;;;;;;6.40;5.13;;;20.00;99.90;;;;;;5033809;28;20263;-87
2022/09/04 04:10:44;;;;;;;7.00;5.60;;;20.00;99.90;;;;;;5034226;28;20167;-87
2022/09/04 04:13:14;;;;;;;5.40;4.90;;;20.10;99.90;;;;;;5034036;28;20196;-87
2022/09/04 04:16:04;;;;;;;5.18;4.57;;;20.00;99.90;;;;;;5034219;28;20203;-87
2022/09/04 04:18:39;;;;;;;8.13;6.20;;;20.00;99.90;;;;;;5034048;28;20186;-86
2022/09/04 04:21:21;;;;;;;5.40;5.00;;;19.90;99.90;;;;;;5033867;28;20171;-86
2022/09/04 04:23:58;;;;;;;6.85;5.55;;;19.80;99.90;;;;;;5033683;28;20220;-86
2022/09/04 04:27:03;;;;;;;9.68;5.15;;;19.80;99.90;;;;;;5033759;28;20611;-86
2022/09/04 04:29:40;;;;;;;7.38;5.78;;;19.90;99.90;;;;;;5033625;28;20167;-87
2022/09/04 04:32:34;;;;;;;9.18;5.75;;;20.00;99.90;;;;;;5033619;28;20215;-85
2022/09/04 04:35:03;;;;;;;5.85;5.25;;;20.10;99.90;;;;;;5028048;28;20272;-87
2022/09/04 04:37:42;;;;;;;6.50;5.88;;;20.10;99.90;;;;;;5032767;28;20172;-87
2022/09/04 04:40:23;;;;;;;6.32;5.72;;;20.00;99.90;;;;;;5033083;28;20180;-86
2022/09/04 04:43:18;;;;;;;5.75;5.28;;;19.90;99.90;;;;;;5033426;28;20198;-86
2022/09/04 04:45:49;;;;;;;9.60;5.25;;;19.70;99.90;;;;;;5033604;28;20183;-87
2022/09/04 04:48:35;;;;;;;6.03;4.70;;;19.70;99.90;;;;;;5033353;28;20262;-86
2022/09/04 04:51:31;;;;;;;8.82;5.25;;;19.70;99.90;;;;;;5033256;28;20310;-87
2022/09/04 04:54:28;;;;;;;5.25;4.75;;;19.80;99.90;;;;;;5033079;28;20200;-87
2022/09/04 04:57:07;;;;;;;4.88;4.40;;;19.80;99.90;;;;;;5044309;28;20171;-86
2022/09/04 05:00:05;;;;;;;9.10;4.55;;;19.80;99.90;;;;;;5046843;28;20171;-87
2022/09/04 05:03:15;;;;;;;10.05;4.50;;;19.70;99.90;;;;;;5048068;28;20202;-86
2022/09/04 05:05:54;;;;;;;5.55;4.13;;;19.50;99.90;;;;;;5050371;28;20231;-86
2022/09/04 05:08:40;;;;;;;5.40;4.32;;;19.60;99.90;;;;;;5049577;28;20196;-87
2022/09/04 05:11:24;;;;;;;4.65;4.30;;;19.70;99.90;;;;;;5040702;28;20179;-86
2022/09/04 05:14:15;;;;;;;5.93;4.53;;;19.70;99.90;;;;;;5040013;28;20194;-87
2022/09/04 05:17:02;;;;;;;4.93;4.47;;;19.70;99.90;;;;;;5044340;28;20176;-87
2022/09/04 05:20:07;;;;;;;3.83;3.53;;;19.60;99.90;;;;;;5037294;28;20171;-86
2022/09/04 05:22:44;;;;;;;5.28;3.72;;;19.50;99.90;;;;;;5022358;28;20263;-87
2022/09/04 05:25:19;;;;;;;6.57;4.70;;;19.60;99.90;;;;;;5020216;28;20215;-87
2022/09/04 05:28:13;;;;;;;5.00;4.60;;;19.80;99.90;;;;;;5035498;28;20167;-87
2022/09/04 05:31:03;;;;;;;7.80;4.60;;;19.80;99.90;;;;;;5039030;28;20184;-87
2022/09/04 05:34:06;;;;;;;5.95;4.22;;;19.70;99.90;;;;;;5036577;28;20222;-87
2022/09/04 05:36:46;;;;;;;5.72;4.18;;;19.70;99.90;;;;;;5037974;28;20168;-87
2022/09/04 05:39:21;;;;;;;6.22;4.10;;;19.90;99.90;;;;;;5036175;28;20175;-87
2022/09/04 05:42:19;;;;;;;9.20;4.85;;;20.10;99.90;;;;;;5037475;28;20558;-87
2022/09/04 05:45:16;;;;;;;11.05;4.35;;;19.90;99.90;;;;;;5037128;28;20212;-88
2022/09/04 05:47:45;;;;;;;4.50;3.95;;;19.90;99.90;;;;;;5039143;28;20168;-87
2022/09/04 05:50:32;;;;;;;4.78;4.38;;;19.70;99.90;;;;;;5039598;28;20160;-87
2022/09/04 05:53:08;;;;;;;7.00;4.75;;;19.80;99.90;;;;;;5041177;28;20210;-87
2022/09/04 05:55:55;;;;;;;5.22;4.72;;;19.90;99.90;;;;;;5047317;28;20156;-87
2022/09/04 05:58:48;;;;;;;7.75;4.20;;;19.90;99.90;;;;;;5050279;28;20175;-88
2022/09/04 06:01:27;;;;;;;8.38;4.10;;;20.10;99.90;;;;;;5040483;28;20172;-85
2022/09/04 06:04:10;;;;;;;13.48;4.53;;;20.00;99.90;;;;;;5038919;28;20221;-86
2022/09/04 06:06:44;;;;;;;7.13;4.47;;;20.00;99.90;;;;;;5040879;28;20180;-86
2022/09/04 06:09:27;;;;;;;4.45;4.10;;;19.90;99.90;;;;;;5036773;28;20163;-89
2022/09/04 06:12:32;;;;;;;4.97;4.35;;;20.10;99.90;;;;;;5039603;28;20179;-88
2022/09/04 06:15:19;;;;;;;4.78;4.28;;;20.30;99.90;;;;;;5038251;28;20188;-88
2022/09/04 06:18:05;;;;;;;5.07;4.57;;;20.20;99.90;;;;;;5037388;28;20182;-88
2022/09/04 06:20:49;;;;;;;6.28;5.47;;;20.30;99.90;;;;;;5037705;28;20801;-88
2022/09/04 06:23:36;;;;;;;6.55;5.15;;;20.30;99.90;;;;;;5036577;28;20194;-87
2022/09/04 06:26:30;;;;;;;6.38;5.63;;;20.40;99.90;;;;;;5041234;28;20172;-87
2022/09/04 06:29:34;;;;;;;6.78;6.05;;;20.40;99.90;;;;;;5050721;28;20182;-87
2022/09/04 06:32:17;;;;;;;9.73;6.57;;;20.50;99.90;;;;;;5051342;28;20160;-89
2022/09/04 06:35:13;;;;;;;7.10;6.32;;;20.50;99.90;;;;;;5039165;28;20168;-87
2022/09/04 06:38:03;;;;;;;7.15;6.40;;;20.50;99.90;;;;;;5036328;28;20168;-88
2022/09/04 06:40:40;;;;;;;8.90;6.65;;;20.50;99.90;;;;;;5037378;28;20229;-88
2022/09/04 06:43:21;;;;;;;12.55;6.60;;;20.60;99.90;;;;;;5036002;28;20188;-88
2022/09/04 06:46:38;;;;;;;9.63;6.78;;;20.70;99.90;;;;;;5036243;28;20183;-88
2022/09/04 06:49:12;;;;;;;9.27;6.43;;;20.80;99.90;;;;;;5036585;28;20249;-90
2022/09/04 06:52:06;;;;;;;9.52;6.40;;;20.90;99.90;;;;;;5036249;28;20517;-89
2022/09/04 06:55:08;;;;;;;6.07;5.50;;;21.00;99.90;;;;;;5036278;28;20526;-89
2022/09/04 06:58:04;;;;;;;6.15;5.65;;;21.30;99.90;;;;;;5035965;28;20314;-88
2022/09/04 07:00:38;;;;;;;8.07;6.25;;;21.40;99.90;;;;;;5034990;28;20179;-88
2022/09/04 07:03:38;;;;;;;7.63;6.63;;;21.30;99.90;;;;;;5035566;28;20210;-89
2022/09/04 07:06:11;;;;;;;6.43;5.93;;;21.30;99.90;;;;;;5036127;28;20188;-89
2022/09/04 07:08:40;;;;;;;11.80;5.60;;;21.50;99.90;;;;;;5035733;28;20297;-89
2022/09/04 07:11:22;;;;;;;9.63;6.07;;;21.50;99.90;;;;;;5036860;28;20256;-88
2022/09/04 07:14:21;;;;;;;11.25;6.95;;;21.70;99.90;;;;;;5035978;28;20206;-88
2022/09/04 07:17:02;;;;;;;7.10;5.90;;;21.60;99.90;;;;;;5015830;28;20199;-87
2022/09/04 07:19:51;;;;;;;7.90;6.30;;;21.80;99.90;;;;;;5035135;28;20195;-87
2022/09/04 07:22:31;;;;;;;16.10;6.72;;;22.00;99.90;;;;;;5035637;28;20188;-87
2022/09/04 07:25:31;;;;;;;6.22;5.72;;;22.30;99.90;;;;;;5035671;28;20192;-88
2022/09/04 07:28:25;;;;;;;8.07;6.07;;;22.30;99.90;;;;;;5036920;28;20233;-87
2022/09/04 07:30:59;;;;;;;9.55;6.18;;;22.50;99.90;;;;;;5039363;28;20180;-88
2022/09/04 07:34:02;;;;;;;7.18;5.60;;;22.60;99.90;;;;;;5037182;28;20184;-93
2022/09/04 07:37:18;;;;;;;7.03;5.45;;;22.40;99.90;;;;;;5007462;28;20180;-93
2022/09/04 07:39:52;;;;;;;10.55;5.68;;;22.40;99.90;;;;;;5032706;28;20180;-93
2022/09/04 07:42:33;;;;;;;4.88;4.43;;;22.40;99.90;;;;;;5038425;28;20259;-93
2022/09/04 07:45:11;;;;;;;7.88;4.30;;;22.40;99.90;;;;;;5036962;28;20211;-92
2022/09/04 07:47:44;;;;;;;5.00;4.43;;;22.50;99.90;;;;;;5039495;28;20632;-92
2022/09/04 07:50:34;;;;;;;5.15;4.15;;;22.70;99.90;;;;;;5042579;28;20279;-92
2022/09/04 07:53:25;;;;;;;8.82;4.32;;;22.90;99.90;;;;;;5041184;28;20676;-91
2022/09/04 07:56:19;;;;;;;7.70;4.30;;;23.20;99.90;;;;;;5038243;28;20628;-90
2022/09/04 07:59:00;;;;;;;4.13;3.72;;;23.30;99.90;;;;;;5044407;28;20230;-89
2022/09/04 08:02:06;;;;;;;12.50;3.53;;;23.30;99.90;;;;;;5043612;28;20199;-89
2022/09/04 08:05:26;;;;;;;8.18;3.03;;;23.50;99.90;;;;;;5026669;28;20311;-84
2022/09/04 08:08:09;;;;;;;3.72;3.22;;;23.40;99.90;;;;;;4976110;28;20178;-83
2022/09/04 08:11:06;;;;;;;3.22;2.92;;;23.00;99.90;;;;;;5026343;28;20632;-82
2022/09/04 08:14:03;;;;;;;2.65;2.45;;;23.00;99.90;;;;;;5033062;28;20184;-90
2022/09/04 08:16:59;;;;;;;3.30;3.00;;;23.30;99.90;;;;;;5004546;28;20199;-88
2022/09/04 08:19:28;;;;;;;3.88;2.97;;;23.50;99.90;;;;;;5014961;28;20177;-89
2022/09/04 08:21:55;;;;;;;3.45;3.15;;;23.90;99.90;;;;;;5021319;28;20195;-89
2022/09/04 08:24:53;;;;;;;6.50;3.10;;;24.10;99.90;;;;;;5019886;28;20226;-88
2022/09/04 08:27:50;;;;;;;3.45;2.92;;;24.40;99.90;;;;;;5017032;28;20176;-91
2022/09/04 08:30:19;;;;;;;2.83;2.45;;;24.60;99.90;;;;;;5042254;28;20172;-90
2022/09/04 08:33:03;;;;;;;2.60;2.40;;;24.90;99.90;;;;;;5013462;28;20188;-87
2022/09/04 08:35:32;;;;;;;4.03;2.75;;;24.80;99.90;;;;;;5015310;28;20168;-87
2022/09/04 08:38:12;;;;;;;2.33;1.95;;;24.80;99.90;;;;;;5013982;28;20598;-87
2022/09/04 08:40:38;;;;;;;7.85;2.40;;;24.60;99.90;;;;;;5018253;28;20175;-88
2022/09/04 08:43:35;;;;;;;1.92;1.80;;;24.80;99.90;;;;;;5027338;28;20216;-88
2022/09/04 08:46:38;;;;;;;3.50;1.98;;;24.80;99.90;;;;;;5046628;28;20180;-87
2022/09/04 08:49:41;;;;;;;4.05;1.45;;;25.10;99.90;;;;;;5037156;28;20250;-87
2022/09/04 08:52:51;;;;;;;1.95;1.60;;;25.30;99.90;;;;;;5034649;28;20352;-86
2022/09/04 08:55:38;;;;;;;2.35;1.70;;;25.30;99.90;;;;;;4977659;28;20176;-88
2022/09/04 08:58:26;;;;;;;6.15;1.65;;;25.20;99.90;;;;;;5034151;28;20646;-88
2022/09/04 09:01:07;;;;;;;2.30;1.70;;;25.20;99.90;;;;;;5015001;28;20184;-85
2022/09/04 09:03:54;;;;;;;1.83;1.70;;;25.50;99.90;;;;;;5032252;28;20581;-86
2022/09/04 09:06:57;;;;;;;1.73;1.50;;;25.60;99.90;;;;;;5033099;28;20171;-85
2022/09/04 09:09:47;;;;;;;2.38;1.42;;;25.60;99.90;;;;;;5034022;28;20183;-86
2022/09/04 09:12:32;;;;;;;2.33;1.60;;;25.50;99.90;;;;;;5038624;28;20246;-86
2022/09/04 09:15:30;;;;;;;2.63;1.75;;;25.70;99.90;;;;;;5037857;28;20164;-84
2022/09/04 09:18:16;;;;;;;1.67;1.35;;;25.50;99.90;;;;;;5019345;28;20180;-88
2022/09/04 09:21:01;;;;;;;1.90;1.48;;;25.60;99.90;;;;;;5035734;28;20594;-87
2022/09/04 09:23:44;;;;;;;2.13;1.50;;;25.70;99.90;;;;;;5042571;28;20183;-88
2022/09/04 09:26:22;;;;;;;4.60;1.60;;;25.80;99.90;;;;;;5037115;28;20174;-85
2022/09/04 09:29:15;;;;;;;1.40;1.10;;;25.80;99.90;;;;;;5034908;28;20168;-87
2022/09/04 09:31:50;;;;;;;2.58;1.70;;;25.80;99.90;;;;;;5032766;28;20188;-87
2022/09/04 09:34:34;;;;;;;1.95;1.42;;;25.90;99.90;;;;;;5032650;28;20171;-87
2022/09/04 09:37:30;;;;;;;1.50;1.30;;;25.90;99.90;;;;;;5033195;28;20613;-87
2022/09/04 09:40:07;;;;;;;1.20;1.10;;;25.90;99.90;;;;;;5032944;28;20171;-86
2022/09/04 09:43:09;;;;;;;3.38;1.80;;;26.00;99.90;;;;;;5020088;28;20208;-87
2022/09/04 09:45:53;;;;;;;9.15;2.00;;;26.00;99.90;;;;;;5013916;28;20264;-88
2022/09/04 09:48:52;;;;;;;6.32;1.88;;;26.10;99.90;;;;;;5015831;28;20175;-88
2022/09/04 09:51:27;;;;;;;4.95;1.20;;;26.10;99.90;;;;;;5018837;28;20176;-87
2022/09/04 09:54:29;;;;;;;4.22;1.40;;;26.30;99.90;;;;;;5018465;28;20203;-90
2022/09/04 09:57:32;;;;;;;1.92;0.98;;;26.60;99.90;;;;;;5023083;28;20226;-89
2022/09/04 10:00:15;;;;;;;7.10;1.42;;;26.60;99.90;;;;;;5037081;28;20178;-89
2022/09/04 10:03:06;;;;;;;10.65;1.45;;;26.30;99.90;;;;;;5033180;28;20206;-85
2022/09/04 10:06:02;;;;;;;3.97;1.88;;;26.30;99.90;;;;;;5033173;28;20211;-85
2022/09/04 10:08:34;;;;;;;2.35;1.48;;;26.20;99.90;;;;;;5032131;28;20172;-86
2022/09/04 10:11:18;;;;;;;2.83;1.23;;;26.30;99.90;;;;;;5033473;28;20513;-86
2022/09/04 10:14:09;;;;;;;1.55;1.23;;;26.20;99.90;;;;;;5033264;28;20261;-85
2022/09/04 10:16:41;;;;;;;2.85;1.30;;;26.30;99.90;;;;;;5033253;28;20215;-86
2022/09/04 10:19:39;;;;;;;12.20;1.30;;;26.50;99.90;;;;;;5032174;28;20179;-83
2022/09/04 10:22:07;;;;;;;6.35;1.25;;;26.50;99.90;;;;;;5032148;28;20202;-87
2022/09/04 10:24:34;;;;;;;2.97;1.20;;;26.70;99.90;;;;;;5031979;28;20266;-85
2022/09/04 10:27:12;;;;;;;4.47;1.50;;;26.80;99.90;;;;;;5032466;28;20207;-88
2022/09/04 10:30:27;;;;;;;3.97;1.40;;;26.70;99.90;;;;;;5042422;28;20174;-89
2022/09/04 10:33:06;;;;;;;3.70;1.30;;;26.60;99.90;;;;;;4999976;28;20268;-89
2022/09/04 10:35:57;;;;;;;1.42;1.00;;;26.60;99.90;;;;;;5037821;28;20178;-88
2022/09/04 10:38:31;;;;;;;2.47;1.10;;;26.60;99.90;;;;;;5040432;28;20176;-86
2022/09/04 10:41:08;;;;;;;1.50;1.05;;;26.50;99.90;;;;;;5049780;28;20193;-90
2022/09/04 10:44:03;;;;;;;1.48;0.98;;;26.60;99.90;;;;;;5040267;28;20191;-87
2022/09/04 10:47:11;;;;;;;3.10;1.50;;;26.90;99.90;;;;;;5053799;28;20260;-88
2022/09/04 10:50:11;;;;;;;7.97;1.38;;;27.10;99.90;;;;;;5040206;28;20183;-88
2022/09/04 10:53:14;;;;;;;3.35;1.58;;;27.00;99.90;;;;;;5044217;28;20207;-87
2022/09/04 10:56:04;;;;;;;11.80;2.08;;;27.00;99.90;;;;;;5040288;28;20178;-89
2022/09/04 10:58:58;;;;;;;3.90;1.65;;;27.10;99.90;;;;;;5042115;28;20160;-89
2022/09/04 11:02:09;;;;;;;1.80;1.30;;;26.90;99.90;;;;;;5039647;28;20526;-84
2022/09/04 11:05:05;;;;;;;2.92;1.55;;;26.90;99.90;;;;;;5037489;28;20212;-85
2022/09/04 11:07:41;;;;;;;3.47;0.82;;;27.00;99.30;;;;;;5036854;28;20542;-84
2022/09/04 11:10:18;;;;;;;1.08;0.90;;;27.00;97.20;;;;;;5037877;28;20574;-85
2022/09/04 11:13:11;;;;;;;9.25;1.08;;;27.10;98.60;;;;;;5040975;28;20184;-84
2022/09/04 11:15:40;;;;;;;7.40;1.08;;;27.20;98.00;;;;;;5048745;28;20214;-85
2022/09/04 11:18:25;;;;;;;8.82;0.90;;;27.40;96.70;;;;;;5039460;28;20172;-85
2022/09/04 11:21:01;;;;;;;1.98;0.82;;;27.30;96.40;;;;;;5039165;28;20192;-85
2022/09/04 11:23:41;;;;;;;1.58;0.80;;;27.20;96.10;;;;;;5037472;28;20199;-85
2022/09/04 11:26:46;;;;;;;1.25;0.77;;;27.20;96.20;;;;;;5033884;28;20182;-84
2022/09/04 11:29:20;;;;;;;3.22;0.85;;;27.30;95.90;;;;;;5033987;28;20164;-84
2022/09/04 11:32:05;;;;;;;1.35;1.02;;;27.40;95.60;;;;;;5033502;28;20236;-84
2022/09/04 11:35:00;;;;;;;12.70;1.00;;;27.40;95.40;;;;;;5038002;28;20210;-93
2022/09/04 11:37:55;;;;;;;2.50;0.90;;;27.30;95.70;;;;;;5037663;28;20164;-94
2022/09/04 11:40:45;;;;;;;5.43;0.90;;;27.30;95.30;;;;;;5041068;28;20168;-92
2022/09/04 11:43:29;;;;;;;1.15;0.80;;;27.20;95.50;;;;;;5038716;28;20664;-94
2022/09/04 11:46:25;;;;;;;2.20;1.05;;;27.20;96.00;;;;;;5041426;28;20262;-95
2022/09/04 11:49:22;;;;;;;4.80;0.85;;;27.20;95.50;;;;;;5046028;28;20186;-88
2022/09/04 11:51:54;;;;;;;2.75;0.90;;;27.20;94.60;;;;;;5042647;28;20648;-93
2022/09/04 11:54:35;;;;;;;2.10;1.20;;;27.20;94.60;;;;;;5038889;28;20536;-93
2022/09/04 11:57:24;;;;;;;2.10;1.13;;;27.30;95.00;;;;;;5041516;28;20168;-89
2022/09/04 11:59:55;;;;;;;4.68;1.20;;;27.50;95.20;;;;;;5039436;28;20260;-89
2022/09/04 12:02:33;;;;;;;4.55;0.98;;;27.50;95.00;;;;;;5041851;28;20680;-94
2022/09/04 12:05:38;;;;;;;2.00;1.00;;;27.50;94.80;;;;;;5037377;28;20211;-85
2022/09/04 12:08:43;;;;;;;1.67;0.88;;;27.50;94.30;;;;;;5037054;28;20178;-89
2022/09/04 12:11:50;;;;;;;6.47;1.27;;;27.20;94.70;;;;;;5038636;28;20175;-89
2022/09/04 12:14:54;;;;;;;2.22;1.10;;;27.30;94.90;;;;;;5025803;28;20215;-89
2022/09/04 12:18:07;;;;;;;5.65;1.10;;;27.30;95.00;;;;;;5018889;28;20251;-89
2022/09/04 12:20:35;;;;;;;1.63;0.85;;;27.50;94.70;;;;;;5041316;28;20480;-95
2022/09/04 12:23:23;;;;;;;3.15;0.85;;;27.40;94.70;;;;;;5039538;28;20198;-95
2022/09/04 12:26:11;;;;;;;2.83;1.30;;;27.20;95.50;;;;;;5039711;28;20563;-96
2022/09/04 12:28:55;;;;;;;8.88;0.98;;;27.30;95.60;;;;;;5043060;28;20164;-91
2022/09/04 12:31:45;;;;;;;1.85;1.23;;;27.50;95.40;;;;;;5043558;28;20182;-92
2022/09/04 12:34:38;;;;;;;0.80;0.80;;;27.60;95.30;;;;;;5040277;28;20252;-91
2022/09/04 12:37:26;;;;;;;8.93;1.73;;;27.50;94.80;;;;;;5054053;28;20172;-86
2022/09/04 12:40:29;;;;;;;2.90;1.17;;;27.50;94.90;;;;;;5053704;28;20172;-89
2022/09/04 12:43:29;;;;;;;2.90;0.90;;;27.50;95.00;;;;;;5051198;28;20263;-90
2022/09/04 12:46:11;;;;;;;1.77;0.80;;;27.50;94.90;;;;;;5050994;28;20247;-95
2022/09/04 12:49:08;;;;;;;6.15;1.17;;;27.60;95.30;;;;;;5045569;28;20565;-93
2022/09/04 12:52:17;;;;;;;5.00;1.15;;;27.60;94.80;;;;;;5052932;28;20168;-89
2022/09/04 12:55:03;;;;;;;1.42;1.00;;;27.70;94.50;;;;;;5042875;28;20175;-93
2022/09/04 12:57:56;;;;;;;1.27;0.90;;;27.60;94.70;;;;;;5044889;28;20239;-91
2022/09/04 13:00:25;;;;;;;8.07;1.58;;;27.80;95.00;;;;;;5050950;28;20164;-91
2022/09/04 13:03:09;;;;;;;2.38;1.10;;;27.90;95.00;;;;;;5031291;28;20242;-85
2022/09/04 13:05:41;;;;;;;2.17;1.30;;;27.90;95.00;;;;;;5046140;28;20212;-93
2022/09/04 13:08:42;;;;;;;3.33;0.85;;;28.00;95.50;;;;;;5039566;28;20176;-91
2022/09/04 13:11:42;;;;;;;2.50;0.90;;;28.10;95.40;;;;;;5035398;28;20191;-85
2022/09/04 13:14:22;;;;;;;1.25;1.05;;;28.10;95.30;;;;;;5045246;28;20260;-87
2022/09/04 13:16:51;;;;;;;1.10;1.00;;;28.20;95.40;;;;;;5041506;28;20194;-93
2022/09/04 13:19:37;;;;;;;1.98;1.20;;;28.10;95.40;;;;;;5039413;28;20243;-93
2022/09/04 13:22:18;;;;;;;1.25;1.15;;;28.10;95.60;;;;;;5038803;28;20214;-94
2022/09/04 13:24:50;;;;;;;4.22;0.85;;;28.20;95.50;;;;;;5038296;28;20573;-92
2022/09/04 13:27:42;;;;;;;6.95;0.85;;;28.40;95.00;;;;;;5033999;28;20649;-89
2022/09/04 13:30:23;;;;;;;1.42;1.13;;;28.20;94.50;;;;;;5032313;28;20176;-85
2022/09/04 13:32:57;;;;;;;3.60;1.45;;;28.20;95.20;;;;;;5031109;28;20199;-84
2022/09/04 13:35:32;;;;;;;7.28;1.00;;;28.30;95.00;;;;;;5034192;28;20179;-85
2022/09/04 13:38:26;;;;;;;1.98;1.50;;;28.40;95.10;;;;;;5032861;28;20177;-89
2022/09/04 13:41:05;;;;;;;3.35;1.20;;;28.30;95.50;;;;;;5033736;28;20237;-84
2022/09/04 13:43:42;;;;;;;1.90;1.20;;;28.30;95.10;;;;;;5032469;28;20556;-90
2022/09/04 13:46:17;;;;;;;3.63;1.02;;;28.30;95.40;;;;;;5034393;28;20175;-88
2022/09/04 13:48:53;;;;;;;2.60;1.23;;;28.30;95.10;;;;;;5031925;28;20221;-85
2022/09/04 13:51:28;;;;;;;1.58;1.13;;;28.40;95.50;;;;;;5032494;28;20190;-88
2022/09/04 13:54:23;;;;;;;4.63;1.20;;;28.60;95.50;;;;;;5032046;28;20229;-85
2022/09/04 13:57:10;;;;;;;5.82;1.38;;;28.60;95.00;;;;;;5033207;28;20229;-87
2022/09/04 13:59:37;;;;;;;8.63;3.33;;;28.70;95.70;;;;;;5033880;28;20167;-88
2022/09/04 14:02:11;;;;;;;1.85;1.75;;;29.00;94.90;;;;;;5032417;28;20223;-88
2022/09/04 14:04:44;;;;;;;4.60;1.55;;;28.90;94.90;;;;;;5033573;28;20207;-84
2022/09/04 14:07:21;;;;;;;4.88;3.00;;;28.90;95.10;;;;;;5030571;28;20588;-82
2022/09/04 14:09:51;;;;;;;3.97;1.30;;;28.60;95.20;;;;;;5032838;28;20168;-82
2022/09/04 14:12:44;;;;;;;2.03;1.33;;;28.40;95.60;;;;;;5034959;28;20183;-82
2022/09/04 14:15:31;;;;;;;8.85;1.63;;;28.50;95.40;;;;;;5034784;28;20203;-82
2022/09/04 14:18:06;;;;;;;3.88;1.27;;;28.40;95.10;;;;;;5034820;28;20171;-82
2022/09/04 14:20:56;;;;;;;4.00;1.17;;;28.30;95.20;;;;;;5035335;28;20205;-88
2022/09/04 14:23:40;;;;;;;2.72;1.20;;;28.20;95.90;;;;;;5035806;28;20191;-89
2022/09/04 14:26:30;;;;;;;2.45;1.13;;;28.10;96.20;;;;;;5035655;28;20194;-86